Time;durP1;ratioP1;P1;durP2;ratioP2;P2;SDS_P1;SDS_P2;PMS_P1;PMS_P2;Temp;Humidity;BMP_temperature;BMP_pressure;BME280_temperature;BME280_humidity;BME280_pressure;Samples;Min_cycle;Max_cycle;Signal;HPM_P1;HPM_P2
2023/05/09 00:00:30;;;;;;;;;;;;;;;19.51;100.00;99907.94;5032895;28;19961;-83
2023/05/09 00:02:55;;;;;;;;;;;;;;;19.36;100.00;99905.31;5033777;28;20265;-83
2023/05/09 00:05:21;;;;;;;;;;;;;;;19.41;100.00;99908.25;5033504;28;20285;-82
2023/05/09 00:07:47;;;;;;;;;;;;;;;19.34;100.00;99901.16;5033949;28;19922;-82
2023/05/09 00:10:12;;;;;;;;;;;;;;;19.21;100.00;99891.97;5028393;28;19925;-82
2023/05/09 00:12:38;;;;;;;;;;;;;;;19.22;100.00;99893.63;5033539;28;20442;-82
2023/05/09 00:15:06;;;;;;;;;;;;;;;19.22;100.00;99901.66;5033421;28;19921;-82
2023/05/09 00:17:32;;;;;;;;;;;;;;;19.20;100.00;99895.66;5033148;28;19925;-81
2023/05/09 00:20:00;;;;;;;;;;;;;;;19.23;100.00;99892.63;5033608;28;19922;-82
2023/05/09 00:22:25;;;;;;;;;;;;;;;19.25;100.00;99896.97;5033108;28;19917;-82
2023/05/09 00:24:51;;;;;;;;;;;;;;;19.22;100.00;99893.63;5033649;28;19992;-82
2023/05/09 00:27:16;;;;;;;;;;;;;;;19.28;100.00;99886.69;5031475;28;19921;-83
2023/05/09 00:29:42;;;;;;;;;;;;;;;19.27;100.00;99884.19;5032026;28;19917;-82
2023/05/09 00:32:07;;;;;;;;;;;;;;;19.27;100.00;99878.84;5032248;28;19929;-83
2023/05/09 00:34:32;;;;;;;;;;;;;;;19.27;100.00;99881.53;5030648;28;19921;-83
2023/05/09 00:36:58;;;;;;;;;;;;;;;19.27;100.00;99884.19;5033416;28;20039;-83
2023/05/09 00:39:23;;;;;;;;;;;;;;;19.23;100.00;99883.75;5031822;28;19921;-82
2023/05/09 00:41:49;;;;;;;;;;;;;;;19.17;100.00;99874.66;5029345;28;20396;-82
2023/05/09 00:44:15;;;;;;;;;;;;;;;19.22;100.00;99871.41;5033443;28;19921;-82
2023/05/09 00:46:40;;;;;;;;;;;;;;;19.21;100.00;99870.56;5032633;28;20385;-83
2023/05/09 00:49:06;;;;;;;;;;;;;;;19.14;100.00;99864.31;5033131;28;19944;-81
2023/05/09 00:51:32;;;;;;;;;;;;;;;19.11;100.00;99864.72;5032713;28;19925;-82
2023/05/09 00:53:57;;;;;;;;;;;;;;;19.09;100.00;99858.72;5033753;28;19928;-81
2023/05/09 00:56:23;;;;;;;;;;;;;;;19.11;100.00;99864.72;5047490;28;19992;-81
2023/05/09 00:58:49;;;;;;;;;;;;;;;19.06;100.00;99860.94;5051050;28;19929;-82
2023/05/09 01:01:15;;;;;;;;;;;;;;;19.08;100.00;99854.41;5051591;28;19917;-83
2023/05/09 01:03:40;;;;;;;;;;;;;;;19.07;100.00;99866.13;5036774;28;19943;-80
2023/05/09 01:06:11;;;;;;;;;;;;;;;19.06;100.00;99861.78;5033506;28;20016;-80
2023/05/09 01:08:52;;;;;;;;;;;;;;;19.08;100.00;99864.28;5032621;28;20594;-80
2023/05/09 01:11:30;;;;;;;;;;;;;;;19.08;100.00;99859.75;5029846;28;19968;-83
2023/05/09 01:14:05;;;;;;;;;;;;;;;19.06;100.00;99864.47;5031878;28;20305;-83
2023/05/09 01:16:38;;;;;;;;;;;;;;;19.05;100.00;99861.97;5027058;28;20389;-83
2023/05/09 01:19:15;;;;;;;;;;;;;;;19.06;100.00;99867.13;5032504;28;19921;-83
2023/05/09 01:21:42;;;;;;;;;;;;;;;19.05;100.00;99864.63;5030998;28;19924;-82
2023/05/09 01:24:07;;;;;;;;;;;;;;;19.06;100.00;99861.78;5031312;28;19951;-83
2023/05/09 01:26:51;;;;;;;;;;;;;;;19.04;100.00;99862.97;5032305;28;19921;-84
2023/05/09 01:29:16;;;;;;;;;;;;;;;19.05;100.00;99854.78;5028411;28;19929;-83
2023/05/09 01:31:44;;;;;;;;;;;;;;;18.95;100.00;99851.59;5032833;28;20441;-83
2023/05/09 01:34:10;;;;;;;;;;;;;;;18.93;100.00;99840.25;5030901;28;19925;-83
2023/05/09 01:36:36;;;;;;;;;;;;;;;18.90;100.00;99845.97;5031282;28;19966;-84
2023/05/09 01:39:03;;;;;;;;;;;;;;;18.91;100.00;99842.25;5031215;28;19925;-81
2023/05/09 01:41:30;;;;;;;;;;;;;;;18.91;100.00;99847.63;5030163;28;19931;-81
2023/05/09 01:43:57;;;;;;;;;;;;;;;18.84;100.00;99846.75;5032897;28;19921;-80
2023/05/09 01:46:24;;;;;;;;;;;;;;;18.79;100.00;99847.28;5031629;28;19932;-81
2023/05/09 01:48:51;;;;;;;;;;;;;;;18.74;100.00;99841.66;5033705;28;19925;-82
2023/05/09 01:51:18;;;;;;;;;;;;;;;18.73;100.00;99850.69;5032343;28;19928;-82
2023/05/09 01:53:46;;;;;;;;;;;;;;;18.67;100.00;99845.31;5024423;28;19932;-83
2023/05/09 01:56:12;;;;;;;;;;;;;;;18.69;100.00;99856.63;5031819;28;19921;-82
2023/05/09 01:58:38;;;;;;;;;;;;;;;18.65;100.00;99852.69;5030276;28;19968;-82
2023/05/09 02:01:04;;;;;;;;;;;;;;;18.64;100.00;99851.00;5031666;28;19967;-82
2023/05/09 02:03:32;;;;;;;;;;;;;;;18.68;100.00;99860.31;5031039;28;19917;-82
2023/05/09 02:05:58;;;;;;;;;;;;;;;18.63;100.00;99868.91;5029720;28;20293;-82
2023/05/09 02:08:24;;;;;;;;;;;;;;;18.64;100.00;99873.22;5029709;28;19928;-83
2023/05/09 02:10:50;;;;;;;;;;;;;;;18.70;100.00;99877.81;5031188;28;19939;-82
2023/05/09 02:13:15;;;;;;;;;;;;;;;18.69;100.00;99875.34;5030091;28;19969;-82
2023/05/09 02:15:41;;;;;;;;;;;;;;;18.68;100.00;99876.34;5029941;28;19921;-82
2023/05/09 02:18:07;;;;;;;;;;;;;;;18.71;100.00;99875.97;5030972;28;19978;-82
2023/05/09 02:20:34;;;;;;;;;;;;;;;18.69;100.00;99868.16;5030572;28;20016;-82
2023/05/09 02:23:00;;;;;;;;;;;;;;;18.74;100.00;99857.72;5029752;28;19921;-83
2023/05/09 02:25:25;;;;;;;;;;;;;;;18.73;100.00;99860.59;5030664;28;20016;-83
2023/05/09 02:27:52;;;;;;;;;;;;;;;18.75;100.00;99856.69;5031061;28;19929;-83
2023/05/09 02:30:22;;;;;;;;;;;;;;;18.75;100.00;99853.19;5030737;28;19928;-83
2023/05/09 02:32:49;;;;;;;;;;;;;;;18.75;100.00;99858.53;5030963;28;19921;-83
2023/05/09 02:35:16;;;;;;;;;;;;;;;18.76;100.00;99860.22;5028140;28;19925;-84
2023/05/09 02:37:41;;;;;;;;;;;;;;;18.76;100.00;99860.22;5030641;28;19997;-83
2023/05/09 02:40:10;;;;;;;;;;;;;;;18.83;100.00;99870.97;5029205;28;20633;-84
2023/05/09 02:42:35;;;;;;;;;;;;;;;18.87;100.00;99862.38;5028452;28;19921;-85
2023/05/09 02:45:01;;;;;;;;;;;;;;;18.90;100.00;99872.72;5029875;28;19921;-86
2023/05/09 02:47:26;;;;;;;;;;;;;;;18.91;100.00;99874.34;5029646;28;19928;-86
2023/05/09 02:49:52;;;;;;;;;;;;;;;18.93;100.00;99877.69;5025493;28;20396;-86
2023/05/09 02:52:17;;;;;;;;;;;;;;;18.91;100.00;99868.22;5009155;28;19989;-86
2023/05/09 02:54:43;;;;;;;;;;;;;;;18.88;100.00;99872.06;5030135;28;19925;-87
2023/05/09 02:57:08;;;;;;;;;;;;;;;18.90;100.00;99878.06;5029438;28;19925;-86
2023/05/09 02:59:34;;;;;;;;;;;;;;;18.93;100.00;99875.00;5029394;28;20304;-87
2023/05/09 03:02:01;;;;;;;;;;;;;;;18.93;100.00;99872.34;5029493;28;19928;-86
2023/05/09 03:04:26;;;;;;;;;;;;;;;18.91;100.00;99874.34;5029281;28;20361;-87
2023/05/09 03:06:52;;;;;;;;;;;;;;;18.88;100.00;99864.06;5029391;28;20370;-88
2023/05/09 03:09:17;;;;;;;;;;;;;;;18.86;100.00;99866.06;5030487;28;19981;-88
2023/05/09 03:11:43;;;;;;;;;;;;;;;18.86;100.00;99860.72;5028572;28;19971;-87
2023/05/09 03:14:09;;;;;;;;;;;;;;;18.88;100.00;99869.41;5016574;28;20388;-87
2023/05/09 03:16:35;;;;;;;;;;;;;;;18.87;100.00;99862.38;5031157;28;19925;-87
2023/05/09 03:19:00;;;;;;;;;;;;;;;18.82;100.00;99859.47;5030763;28;20017;-87
2023/05/09 03:21:27;;;;;;;;;;;;;;;18.78;100.00;99863.53;5060429;28;19929;-87
2023/05/09 03:23:52;;;;;;;;;;;;;;;18.77;100.00;99862.69;5045545;28;19921;-87
2023/05/09 03:26:18;;;;;;;;;;;;;;;18.74;100.00;99862.22;5042142;28;19921;-88
2023/05/09 03:28:43;;;;;;;;;;;;;;;18.75;100.00;99858.53;5036914;28;19928;-86
2023/05/09 03:31:09;;;;;;;;;;;;;;;18.76;100.00;99854.84;5033659;28;19932;-83
2023/05/09 03:33:34;;;;;;;;;;;;;;;18.72;100.00;99854.41;5030002;28;19932;-83
2023/05/09 03:36:00;;;;;;;;;;;;;;;18.71;100.00;99852.75;5031083;28;19921;-83
2023/05/09 03:38:26;;;;;;;;;;;;;;;18.68;100.00;99854.97;5029590;28;20012;-84
2023/05/09 03:40:55;;;;;;;;;;;;;;;18.68;100.00;99844.25;5028991;28;19975;-84
2023/05/09 03:43:20;;;;;;;;;;;;;;;18.64;100.00;99840.31;5030322;28;19975;-85
2023/05/09 03:45:46;;;;;;;;;;;;;;;18.64;100.00;99848.34;5034329;28;19921;-84
2023/05/09 03:48:13;;;;;;;;;;;;;;;18.63;100.00;99846.69;5029618;28;20258;-85
2023/05/09 03:50:46;;;;;;;;;;;;;;;18.57;100.00;99845.59;5028081;28;20381;-83
2023/05/09 03:53:13;;;;;;;;;;;;;;;18.58;100.00;99851.75;5029023;28;19921;-85
2023/05/09 03:55:39;;;;;;;;;;;;;;;18.56;100.00;99848.44;5032507;28;19936;-84
2023/05/09 03:58:05;;;;;;;;;;;;;;;18.55;100.00;99852.16;5028945;28;19921;-83
2023/05/09 04:00:33;;;;;;;;;;;;;;;18.53;100.00;99852.28;5029198;28;19925;-83
2023/05/09 04:03:07;;;;;;;;;;;;;;;18.55;100.00;99849.47;5026215;28;19974;-82
2023/05/09 04:05:37;;;;;;;;;;;;;;;18.54;100.00;99853.97;5030433;28;19924;-82
2023/05/09 04:08:05;;;;;;;;;;;;;;;18.54;100.00;99851.28;5032457;28;20040;-83
2023/05/09 04:10:31;;;;;;;;;;;;;;;18.55;100.00;99865.50;5048757;28;19955;-84
2023/05/09 04:12:57;;;;;;;;;;;;;;;18.54;100.00;99856.63;5033158;28;19928;-86
2023/05/09 04:15:22;;;;;;;;;;;;;;;18.52;100.00;99857.81;5032692;28;20110;-86
2023/05/09 04:17:48;;;;;;;;;;;;;;;18.52;100.00;99855.16;5012640;28;19925;-85
2023/05/09 04:20:14;;;;;;;;;;;;;;;18.52;100.00;99853.31;5033808;28;19975;-84
2023/05/09 04:22:40;;;;;;;;;;;;;;;18.52;100.00;99855.97;5033180;28;19924;-84
2023/05/09 04:25:07;;;;;;;;;;;;;;;18.51;100.00;99865.00;5050783;28;19974;-82
2023/05/09 04:27:33;;;;;;;;;;;;;;;18.51;100.00;99864.16;5033346;28;19921;-83
2023/05/09 04:29:59;;;;;;;;;;;;;;;18.52;100.00;99855.16;5034062;28;20033;-82
2023/05/09 04:32:25;;;;;;;;;;;;;;;18.50;100.00;99857.16;5035506;28;19921;-83
2023/05/09 04:34:51;;;;;;;;;;;;;;;18.47;100.00;99865.56;5032935;28;19953;-83
2023/05/09 04:37:21;;;;;;;;;;;;;;;18.42;100.00;99858.94;5032391;28;19929;-83
2023/05/09 04:39:47;;;;;;;;;;;;;;;18.45;100.00;99863.06;5007559;28;20293;-83
2023/05/09 04:42:18;;;;;;;;;;;;;;;18.48;100.00;99856.53;5044842;28;20374;-82
2023/05/09 04:44:44;;;;;;;;;;;;;;;18.51;100.00;99845.47;5029287;28;19921;-82
2023/05/09 04:47:09;;;;;;;;;;;;;;;18.50;100.00;99843.81;5031539;28;20060;-82
2023/05/09 04:49:36;;;;;;;;;;;;;;;18.54;100.00;99853.13;5031271;28;19928;-82
2023/05/09 04:52:01;;;;;;;;;;;;;;;18.56;100.00;99853.78;5033071;28;19921;-81
2023/05/09 04:54:27;;;;;;;;;;;;;;;18.56;100.00;99859.13;5031436;28;19956;-83
2023/05/09 04:56:53;;;;;;;;;;;;;;;18.52;100.00;99850.63;5031499;28;19928;-81
2023/05/09 04:59:18;;;;;;;;;;;;;;;18.51;100.00;99848.97;5031677;28;19925;-84
2023/05/09 05:01:44;;;;;;;;;;;;;;;18.52;100.00;99852.47;5032110;28;19921;-84
2023/05/09 05:04:10;;;;;;;;;;;;;;;18.52;100.00;99847.13;5033934;28;19928;-87
2023/05/09 05:06:35;;;;;;;;;;;;;;;18.53;100.00;99848.78;5032186;28;20378;-88
2023/05/09 05:09:00;;;;;;;;;;;;;;;18.55;100.00;99849.47;5032591;28;20376;-86
2023/05/09 05:11:26;;;;;;;;;;;;;;;18.58;100.00;99854.44;5031810;28;19921;-86
2023/05/09 05:13:52;;;;;;;;;;;;;;;18.62;100.00;99858.38;5051315;28;19925;-84
2023/05/09 05:16:17;;;;;;;;;;;;;;;18.63;100.00;99860.03;5032587;28;19966;-86
2023/05/09 05:18:43;;;;;;;;;;;;;;;18.62;100.00;99863.72;5031415;28;19921;-89
2023/05/09 05:21:08;;;;;;;;;;;;;;;18.63;100.00;99865.38;5033056;28;20011;-82
2023/05/09 05:23:34;;;;;;;;;;;;;;;18.69;100.00;99869.97;5031075;28;19925;-82
2023/05/09 05:25:59;;;;;;;;;;;;;;;18.66;100.00;99870.38;5032931;28;19982;-83
2023/05/09 05:28:26;;;;;;;;;;;;;;;18.65;100.00;99868.72;5014239;28;19921;-81
2023/05/09 05:30:51;;;;;;;;;;;;;;;18.64;100.00;99867.88;5026375;28;20308;-79
2023/05/09 05:33:16;;;;;;;;;;;;;;;18.66;100.00;99865.03;5028665;28;19925;-80
2023/05/09 05:35:42;;;;;;;;;;;;;;;18.69;100.00;99862.78;5027986;28;19937;-81
2023/05/09 05:38:07;;;;;;;;;;;;;;;18.62;100.00;99855.72;5030848;28;19936;-79
2023/05/09 05:40:33;;;;;;;;;;;;;;;18.68;100.00;99857.63;5029905;28;20369;-78
2023/05/09 05:43:01;;;;;;;;;;;;;;;18.74;100.00;99867.56;5025171;28;19921;-79
2023/05/09 05:45:29;;;;;;;;;;;;;;;18.76;100.00;99865.56;5026967;28;20466;-79
2023/05/09 05:47:56;;;;;;;;;;;;;;;18.79;100.00;99865.19;5030031;28;20294;-79
2023/05/09 05:50:22;;;;;;;;;;;;;;;18.68;100.00;99868.31;5030239;28;20448;-78
2023/05/09 05:52:47;;;;;;;;;;;;;;;18.65;100.00;99868.72;5026517;28;20015;-80
2023/05/09 05:55:14;;;;;;;;;;;;;;;18.64;100.00;99872.41;5031058;28;20014;-77
2023/05/09 05:57:39;;;;;;;;;;;;;;;18.60;100.00;99869.28;5047321;28;19980;-81
2023/05/09 06:00:10;;;;;;;;;;;;;;;18.53;100.00;99870.16;5027016;28;19929;-79
2023/05/09 06:02:58;;;;;;;;;;;;;;;18.50;100.00;99875.88;5041602;28;19924;-77
2023/05/09 06:05:32;;;;;;;;;;;;;;;18.50;100.00;99875.88;5028910;28;20416;-78
2023/05/09 06:07:57;;;;;;;;;;;;;;;18.50;100.00;99866.00;5030104;28;19963;-81
2023/05/09 06:10:23;;;;;;;;;;;;;;;18.54;100.00;99869.16;5029590;28;19971;-79
2023/05/09 06:12:48;;;;;;;;;;;;;;;18.57;100.00;99871.47;5031197;28;20372;-78
2023/05/09 06:15:13;;;;;;;;;;;;;;;18.56;100.00;99875.16;5030173;28;19982;-79
2023/05/09 06:17:43;;;;;;;;;;;;;;;18.54;100.00;99867.31;5025429;28;19970;-79
2023/05/09 06:20:08;;;;;;;;;;;;;;;18.53;100.00;99872.84;5030044;28;20017;-79
2023/05/09 06:22:33;;;;;;;;;;;;;;;18.51;100.00;99861.50;5029190;28;20710;-79
2023/05/09 06:24:59;;;;;;;;;;;;;;;18.47;100.00;99860.22;5031233;28;19941;-78
2023/05/09 06:27:24;;;;;;;;;;;;;;;18.53;100.00;99860.31;5030844;28;20304;-80
2023/05/09 06:29:51;;;;;;;;;;;;;;;18.56;100.00;99853.78;5030045;28;19956;-80
2023/05/09 06:32:17;;;;;;;;;;;;;;;18.62;100.00;99853.03;5028925;28;19929;-80
2023/05/09 06:34:42;;;;;;;;;;;;;;;18.60;100.00;99855.09;5029183;28;19922;-79
2023/05/09 06:37:08;;;;;;;;;;;;;;;18.59;100.00;99850.75;5030630;28;19936;-80
2023/05/09 06:39:33;;;;;;;;;;;;;;;18.60;100.00;99855.09;5030307;28;19925;-78
2023/05/09 06:41:58;;;;;;;;;;;;;;;18.64;100.00;99856.34;5030659;28;20431;-79
2023/05/09 06:44:29;;;;;;;;;;;;;;;18.66;100.00;99860.50;5023960;28;19932;-78
2023/05/09 06:46:56;;;;;;;;;;;;;;;18.69;100.00;99859.28;5026975;28;19921;-79
2023/05/09 06:49:22;;;;;;;;;;;;;;;18.69;100.00;99854.78;5027038;28;19963;-78
2023/05/09 06:51:48;;;;;;;;;;;;;;;18.74;100.00;99851.53;5026084;28;19956;-75
2023/05/09 06:54:15;;;;;;;;;;;;;;;18.72;100.00;99858.94;5026230;28;19933;-80
2023/05/09 06:56:41;;;;;;;;;;;;;;;18.73;100.00;99865.94;5023585;28;19917;-80
2023/05/09 06:59:06;;;;;;;;;;;;;;;18.77;100.00;99867.22;5023760;28;19983;-79
2023/05/09 07:01:32;;;;;;;;;;;;;;;18.81;100.00;99863.13;5019002;28;19925;-79
2023/05/09 07:03:58;;;;;;;;;;;;;;;18.83;100.00;99869.13;5017198;28;19929;-78
2023/05/09 07:06:23;;;;;;;;;;;;;;;18.85;100.00;99861.75;5023192;28;19922;-78
2023/05/09 07:08:49;;;;;;;;;;;;;;;18.85;100.00;99872.44;5025344;28;19932;-78
2023/05/09 07:11:15;;;;;;;;;;;;;;;18.85;100.00;99874.31;5015138;28;20296;-78
2023/05/09 07:13:40;;;;;;;;;;;;;;;18.80;100.00;99878.34;5022865;28;20377;-78
2023/05/09 07:16:05;;;;;;;;;;;;;;;18.72;100.00;99873.13;5021362;28;20254;-78
2023/05/09 07:18:31;;;;;;;;;;;;;;;18.75;100.00;99869.25;5014032;28;19922;-78
2023/05/09 07:20:56;;;;;;;;;;;;;;;18.79;100.00;99859.84;5017171;28;19924;-78
2023/05/09 07:23:21;;;;;;;;;;;;;;;18.84;100.00;99857.44;5018552;28;19965;-79
2023/05/09 07:25:47;;;;;;;;;;;;;;;18.88;100.00;99864.06;5018411;28;19948;-79
2023/05/09 07:28:12;;;;;;;;;;;;;;;18.89;100.00;99860.38;5018579;28;19925;-80
2023/05/09 07:30:38;;;;;;;;;;;;;;;18.88;100.00;99858.69;5022974;28;19929;-79
2023/05/09 07:33:03;;;;;;;;;;;;;;;18.94;100.00;99857.94;5027953;28;19921;-77
2023/05/09 07:35:28;;;;;;;;;;;;;;;19.01;100.00;99858.84;5029278;28;20011;-80
2023/05/09 07:37:54;;;;;;;;;;;;;;;19.04;100.00;99858.47;5028057;28;19929;-79
2023/05/09 07:40:19;;;;;;;;;;;;;;;19.13;100.00;99856.50;5028730;28;19928;-78
2023/05/09 07:42:48;;;;;;;;;;;;;;;19.19;100.00;99861.94;5034208;28;19928;-79
2023/05/09 07:45:13;;;;;;;;;;;;;;;19.24;100.00;99864.03;5029735;28;19928;-80
2023/05/09 07:47:39;;;;;;;;;;;;;;;19.28;100.00;99859.09;5032575;28;19929;-80
2023/05/09 07:50:05;;;;;;;;;;;;;;;19.33;100.00;99859.34;5033395;28;19975;-77
2023/05/09 07:52:30;;;;;;;;;;;;;;;19.36;100.00;99857.13;5029990;28;20066;-77
2023/05/09 07:54:58;;;;;;;;;;;;;;;19.36;100.00;99861.66;5031932;28;20459;-78
2023/05/09 07:57:23;;;;;;;;;;;;;;;19.28;100.00;99856.44;5024684;28;19968;-78
2023/05/09 07:59:49;;;;;;;;;;;;;;;19.34;100.00;99853.00;5031916;28;19964;-77
2023/05/09 08:02:15;;;;;;;;;;;;;;;19.36;100.00;99853.63;5033158;28;20285;-77
2023/05/09 08:04:40;;;;;;;;;;;;;;;19.37;100.00;99849.94;5032944;28;19921;-77
2023/05/09 08:07:06;;;;;;;;;;;;;;;19.42;100.00;99858.22;5032780;28;19961;-79
2023/05/09 08:09:32;;;;;;;;;;;;;;;19.49;100.00;99845.75;5032183;28;20384;-78
2023/05/09 08:11:57;;;;;;;;;;;;;;;19.51;100.00;99843.69;5032908;28;20017;-78
2023/05/09 08:14:22;;;;;;;29.50;26.30;;;;;;;19.58;100.00;99844.59;5032404;28;19921;-78
2023/05/09 08:16:48;;;;;;;29.57;26.37;;;;;;;19.66;100.00;99839.09;5031605;28;20410;-78
2023/05/09 08:19:13;;;;;;;;;;;;;;;19.72;100.00;99830.28;5027521;28;20406;-79
2023/05/09 08:21:39;;;;;;;;;;;;;;;19.79;100.00;99836.50;5032511;28;20020;-78
2023/05/09 08:24:06;;;;;;;;;;;;;;;19.85;100.00;99830.38;5032604;28;19924;-78
2023/05/09 08:26:32;;;;;;;;;;;;;;;19.81;100.00;99829.09;5032269;28;19924;-78
2023/05/09 08:28:58;;;;;;;;;;;;;;;19.85;100.00;99825.00;5032779;28;19921;-77
2023/05/09 08:31:23;;;;;;;;;;;;;;;19.89;100.00;99826.28;5031041;28;19924;-78
2023/05/09 08:33:49;;;;;;;;;;;;;;;19.88;100.00;99830.00;5032816;28;19939;-77
2023/05/09 08:36:14;;;;;;;;;;;;;;;19.80;100.00;99822.09;5032694;28;19917;-78
2023/05/09 08:38:40;;;;;;;;;;;;;;;19.79;100.00;99825.00;5030743;28;19979;-78
2023/05/09 08:41:05;;;;;;;;;;;;;;;19.78;100.00;99823.34;5031901;28;20392;-78
2023/05/09 08:43:32;;;;;;;;;;;;;;;19.80;100.00;99815.91;5031268;28;20396;-77
2023/05/09 08:45:59;;;;;;;;;;;;;;;19.83;100.00;99816.38;5032578;28;19925;-77
2023/05/09 08:48:25;;;;;;;;;;;;;;;19.81;100.00;99813.03;5031018;28;19917;-77
2023/05/09 08:50:51;;;;;;;;;;;;;;;19.77;100.00;99817.16;5032336;28;19971;-77
2023/05/09 08:53:17;;;;;;;;;;;;;;;19.89;100.00;99814.75;5030732;28;20305;-77
2023/05/09 08:55:43;;;;;;;;;;;;;;;19.98;100.00;99818.91;5031886;28;19960;-77
2023/05/09 08:58:08;;;;;;;;;;;;;;;20.08;100.00;99810.53;5032062;28;20007;-77
2023/05/09 09:00:35;;;;;;;;;;;;;;;20.21;100.00;99813.25;5031685;28;19979;-77
2023/05/09 09:03:02;;;;;;;;;;;;;;;20.25;100.00;99817.22;5031982;28;19917;-76
2023/05/09 09:05:29;;;;;;;;;;;;;;;20.31;100.00;99819.13;5032083;28;19917;-77
2023/05/09 09:07:56;;;;;;;;;;;;;;;20.17;100.00;99812.03;5032146;28;19920;-77
2023/05/09 09:10:24;;;;;;;;;;;;;;;20.22;100.00;99817.59;5031291;28;19966;-77
2023/05/09 09:12:50;;;;;;;;;;;;;;;20.23;100.00;99811.22;5030396;28;20211;-77
2023/05/09 09:15:18;;;;;;;;;;;;;;;20.34;100.00;99813.38;5027075;28;19956;-78
2023/05/09 09:17:47;;;;;;;;;;;;;;;20.42;100.00;99800.63;5028114;28;19948;-77
2023/05/09 09:20:13;;;;;;;;;;;;;;;20.39;100.00;99805.56;5030709;28;19962;-77
2023/05/09 09:22:41;;;;;;;;;;;;;;;20.39;100.00;99801.03;5030833;28;20215;-77
2023/05/09 09:25:06;;;;;;;;;;;;;;;20.54;100.00;99794.69;5031078;28;19917;-77
2023/05/09 09:27:32;;;;;;;;;;;;;;;20.60;100.00;99797.41;5031148;28;20078;-77
2023/05/09 09:30:15;;;;;;;;;;;;;;;20.73;100.00;99797.44;5031583;28;19917;-77
2023/05/09 09:32:41;;;;;;;;;;;;;;;20.77;100.00;99793.31;5029579;28;20412;-77
2023/05/09 09:35:07;;;;;;;;;;;;;;;20.82;100.00;99796.22;5031500;28;20011;-78
2023/05/09 09:37:34;;;;;;;;;;;;;;;20.76;100.00;99786.31;5030949;28;19917;-77
2023/05/09 09:39:59;;;;;;;;;;;;;;;20.76;100.00;99791.66;5030962;28;19983;-78
2023/05/09 09:42:24;;;;;;;;;;;;;;;20.80;100.00;99784.84;5030737;28;19917;-77
2023/05/09 09:44:55;;;;;;;;;;;;;;;20.89;100.00;99784.69;5029067;28;19917;-76
2023/05/09 09:47:29;;;;;;;;;;;;;;;21.05;100.00;99784.28;5030884;28;19948;-78
2023/05/09 09:49:54;;;;;;;;;;;;;;;21.14;100.00;99788.44;5031377;28;19917;-78
2023/05/09 09:52:24;;;;;;;;;;;;;;;21.16;100.00;99786.38;5030539;28;19964;-78
2023/05/09 09:54:49;;;;;;;;;;;;;;;21.10;100.00;99773.75;5030935;28;19920;-79
2023/05/09 09:57:32;;;;;;;;;;;;;;;21.14;100.00;99772.34;5030393;28;19913;-78
2023/05/09 09:59:58;;;;;;;;;;;;;;;21.30;100.00;99769.28;5028918;28;19917;-78
2023/05/09 10:02:23;;;;;;;;;;;;;;;21.32;100.00;99767.22;5030649;28;19917;-77
2023/05/09 10:04:49;;;;;;;;;;;;;;;21.32;100.00;99777.13;5031024;28;20254;-77
2023/05/09 10:07:14;;;;;;;;;;;;;;;21.37;100.00;99771.94;5029688;28;19986;-78
2023/05/09 10:09:39;;;;;;;;;;;;;;;21.48;100.00;99769.47;5030883;28;19951;-78
2023/05/09 10:12:06;;;;;;;;;;;;;;;21.52;100.00;99776.06;5030398;28;19917;-78
2023/05/09 10:14:33;;;;;;;;;;;;;;;21.56;100.00;99765.72;5030131;28;19916;-78
2023/05/09 10:16:59;;;;;;;;;;;;;;;21.65;100.00;99764.47;5030821;28;20273;-79
2023/05/09 10:19:28;;;;;;;;;;;;;;;21.65;100.00;99764.47;5030664;28;19939;-78
2023/05/09 10:22:03;;;;;;;;;;;;;;;21.65;100.00;99759.94;5025758;28;19917;-78
2023/05/09 10:24:31;;;;;;;;;;;;;;;21.65;100.00;99757.25;5030830;28;19917;-78
2023/05/09 10:27:02;;;;;;;;;;;;;;;21.71;100.00;99741.34;5030842;28;19940;-78
2023/05/09 10:29:30;;;;;;;;;;;;;;;21.83;100.00;99736.97;5029872;28;20380;-78
2023/05/09 10:31:58;;;;;;;;;;;;;;;21.89;100.00;99736.13;5031536;28;20014;-78
2023/05/09 10:34:26;;;;;;;;;;;;;;;22.03;100.00;99735.09;5012285;28;20020;-78
2023/05/09 10:36:54;;;;;;;;;;;;;;;22.22;100.00;99723.41;5031723;28;19917;-78
2023/05/09 10:39:20;;;;;;;;;;;;;;;22.31;100.00;99724.81;5030512;28;19921;-77
2023/05/09 10:41:48;;;;;;;;;;;;;;;22.29;100.00;99718.84;5025128;28;19917;-79
2023/05/09 10:44:15;;;;;;;;;;;;;;;22.30;100.00;99719.66;5029024;28;19971;-78
2023/05/09 10:46:41;;;;;;;;;;;;;;;22.32;100.00;99718.41;5030391;28;20290;-78
2023/05/09 10:49:07;;;;;;;;;;;;;;;22.52;100.00;99706.72;5030120;28;20376;-78
2023/05/09 10:51:32;;;;;;;;;;;;;;;22.49;100.00;99712.53;5029714;28;20357;-77
2023/05/09 10:53:58;;;;;;;;;;;;;;;22.23;100.00;99708.09;5030086;28;19917;-77
2023/05/09 10:56:30;;;;;;;;;;;;;;;22.15;98.82;99695.72;5028728;28;19920;-77
2023/05/09 10:58:56;;;;;;;;;;;;;;;22.12;100.00;99690.81;5026622;28;19917;-77
2023/05/09 11:01:30;;;;;;;;;;;;;;;22.21;100.00;99692.19;5029359;28;19917;-78
2023/05/09 11:03:57;;;;;;;;;;;;;;;22.36;100.00;99684.69;5028420;28;20391;-78
2023/05/09 11:06:44;;;;;;;;;;;;;;;22.58;99.36;99674.41;5028654;28;19917;-78
2023/05/09 11:09:28;;;;;;;;;;;;;;;22.63;99.48;99684.50;5030059;28;20000;-77
2023/05/09 11:12:08;;;;;;;;;;;;;;;22.53;98.10;99684.16;5030044;28;19917;-77
2023/05/09 11:14:41;;;;;;;;;;;;;;;22.51;98.14;99680.84;5027293;28;20363;-77
2023/05/09 11:17:08;;;;;;;;;;;;;;;22.69;96.98;99676.38;5029510;28;20050;-78
2023/05/09 11:19:35;;;;;;;;;;;;;;;22.84;96.31;99668.88;5029245;28;19921;-78
2023/05/09 11:22:03;;;;;;;;;;;;;;;22.92;97.43;99670.44;5029580;28;19952;-78
2023/05/09 11:24:30;;;;;;;;;;;;;;;22.98;96.33;99664.19;5026613;28;19917;-76
2023/05/09 11:26:56;;;;;;;;;;;;;;;23.06;94.45;99655.00;5027514;28;19913;-77
2023/05/09 11:29:25;;;;;;;;;;;;;;;23.12;93.59;99648.75;5029142;28;19924;-78
2023/05/09 11:32:04;;;;;;;;;;;;;;;23.26;93.40;99644.88;5028056;28;19924;-77
2023/05/09 11:34:29;;;;;;;;;;;;;;;23.16;91.49;99642.69;5029019;28;19928;-77
2023/05/09 11:37:05;;;;;;;;;;;;;;;23.11;91.30;99642.53;5029334;28;19917;-77
2023/05/09 11:39:31;;;;;;;;;;;;;;;23.26;89.68;99632.25;5027940;28;20318;-77
2023/05/09 11:41:56;;;;;;;;;;;;;;;23.28;91.08;99630.13;5029663;28;20016;-76
2023/05/09 11:44:23;;;;;;;;;;;;;;;23.23;89.02;99624.59;5029438;28;19917;-78
2023/05/09 11:46:48;;;;;;;;;;;;;;;23.18;89.70;99621.75;5027299;28;20365;-77
2023/05/09 11:49:14;;;;;;;;;;;;;;;23.15;88.24;99616.81;5027785;28;19924;-76
2023/05/09 11:51:40;;;;;;;;;;;;;;;23.30;89.07;99612.94;5028647;28;19929;-77
2023/05/09 11:54:06;;;;;;;;;;;;;;;23.44;90.72;99614.47;5029682;28;19991;-77
2023/05/09 11:56:32;;;;;;;;;;;;;;;23.42;91.43;99605.78;5029305;28;20320;-78
2023/05/09 11:58:58;;;;;;;;;;;;;;;23.45;89.78;99600.75;5027531;28;20440;-78
2023/05/09 12:01:23;;;;;;;;;;;;;;;23.58;90.36;99600.63;5028891;28;20003;-78
2023/05/09 12:03:49;;;;;;;;;;;;;;;23.49;88.63;99606.56;5029518;28;19927;-78
2023/05/09 12:06:16;;;;;;;;;;;;;;;23.40;88.44;99602.47;5029045;28;20285;-78
2023/05/09 12:08:42;;;;;;;;;;;;;;;23.31;88.41;99601.97;5028944;28;19917;-78
2023/05/09 12:11:08;;;;;;;;;;;;;;;23.22;89.43;99596.03;5029258;28;19919;-78
2023/05/09 12:13:34;;;;;;;;;;;;;;;23.19;88.94;99593.81;5028940;28;20000;-77
2023/05/09 12:16:02;;;;;;;;;;;;;;;23.26;89.81;99589.19;5029104;28;19979;-77
2023/05/09 12:18:27;;;;;;;;;;;;;;;23.27;88.39;99574.63;5027207;28;19924;-78
2023/05/09 12:20:53;;;;;;;;;;;;;;;23.20;89.74;99575.78;5023643;28;19917;-77
2023/05/09 12:23:18;;;;;;;;;;;;;;;23.11;89.17;99567.16;5024862;28;20166;-77
2023/05/09 12:25:47;;;;;;;;;;;;;;;23.14;89.15;99566.72;5026000;28;19921;-78
2023/05/09 12:28:13;;;;;;;;;;;;;;;23.27;87.33;99550.41;5030522;28;19959;-78
2023/05/09 12:30:39;;;;;;;;;;;;;;;23.42;86.58;99551.91;5029045;28;19980;-77
2023/05/09 12:33:06;;;;;;;;;;;;;;;23.53;86.03;99548.47;5029696;28;19924;-77
2023/05/09 12:35:34;;;;;;;;;;;;;;;23.69;85.17;99555.94;5030012;28;19917;-77